Ana Sayfa
METAR-TAF:

METAR-TAF

Havaalanları :

Mecklenburg-Brunswick Regional Airport

South Hill, Virginia, Amerika Birleşik Devletleri

Enlem: 36-41-19N, Boylam: 078-03-15W, yükseklik: 135 m

Güncel hava durumu gözlemi

Rapor saat 20:35 UTC de 18 dakika önce yapıldı.
Rüzgar kuzey/kuzeydoğudan 13 kt ve 20 kt'a kadar ani rüzgarlar
Sıcaklık 6°C
Nem 61%
Basınç 1025 hPa
Görüş mesafesi: 16.1 km
3000 ft yükseklikte çok bulutlu

METAR: KAVC 162035Z AUTO 02013G20KT 10SM OVC030 06/M01 A3026 RMK AO2 T00641006

Saat: 15:53 (20:53 UTC)


TAF: eksik

4.000'den fazla havaalanı için hava durumu gözlemleri ve tahminleri (METAR ve TAF raporları).

Kullanılabilir istasyonlar harita üzerinde sarı ve kırmızı noktalarla gösterilir.

İstasyonun adını görmek için fareyi noktanın üzerinde gezdirin.

Sonrasında hava gözlem ve tahminlerini görmek için tıklayın.

Haritayı değiştirmek için: yaklaştırmak için siyah artı işaretli yeşil düğmeye ve uzaklaştırmak için de eksi işaretli düğmeye hızla tıklayın; bitişik haritalar için yeşil okları kullanın.


METAR-TAF: